sensor_id;sensor_type;location;lat;lon;timestamp;P1;durP1;ratioP1;P2;durP2;ratioP2
18532;SDS011;9396;51.510;11.934;2023-07-30T00:01:28;5.10;;;2.33;;
18532;SDS011;9396;51.510;11.934;2023-07-30T00:03:54;5.83;;;2.57;;
18532;SDS011;9396;51.510;11.934;2023-07-30T00:06:21;6.50;;;2.73;;
18532;SDS011;9396;51.510;11.934;2023-07-30T00:08:48;2.83;;;2.53;;
18532;SDS011;9396;51.510;11.934;2023-07-30T00:11:16;4.47;;;2.70;;
18532;SDS011;9396;51.510;11.934;2023-07-30T00:13:43;4.07;;;2.43;;
18532;SDS011;9396;51.510;11.934;2023-07-30T00:16:10;3.30;;;2.37;;
18532;SDS011;9396;51.510;11.934;2023-07-30T00:18:37;5.10;;;2.80;;
18532;SDS011;9396;51.510;11.934;2023-07-30T00:21:03;3.60;;;2.60;;
18532;SDS011;9396;51.510;11.934;2023-07-30T00:23:30;2.97;;;2.47;;
18532;SDS011;9396;51.510;11.934;2023-07-30T00:25:57;5.80;;;3.20;;
18532;SDS011;9396;51.510;11.934;2023-07-30T00:28:25;6.43;;;2.73;;
18532;SDS011;9396;51.510;11.934;2023-07-30T00:30:51;3.37;;;2.43;;
18532;SDS011;9396;51.510;11.934;2023-07-30T00:33:18;3.30;;;3.00;;
18532;SDS011;9396;51.510;11.934;2023-07-30T00:35:45;3.70;;;2.43;;
18532;SDS011;9396;51.510;11.934;2023-07-30T00:38:11;3.50;;;2.80;;
18532;SDS011;9396;51.510;11.934;2023-07-30T00:40:39;3.60;;;2.93;;
18532;SDS011;9396;51.510;11.934;2023-07-30T00:43:06;7.47;;;3.27;;
18532;SDS011;9396;51.510;11.934;2023-07-30T00:45:35;3.90;;;3.30;;
18532;SDS011;9396;51.510;11.934;2023-07-30T00:48:02;4.53;;;2.70;;
18532;SDS011;9396;51.510;11.934;2023-07-30T00:50:29;4.30;;;2.60;;
18532;SDS011;9396;51.510;11.934;2023-07-30T00:52:56;4.43;;;3.13;;
18532;SDS011;9396;51.510;11.934;2023-07-30T00:55:23;5.47;;;3.30;;
18532;SDS011;9396;51.510;11.934;2023-07-30T00:57:50;4.73;;;3.20;;
18532;SDS011;9396;51.510;11.934;2023-07-30T01:00:17;3.40;;;3.10;;
18532;SDS011;9396;51.510;11.934;2023-07-30T01:02:46;3.30;;;3.00;;
18532;SDS011;9396;51.510;11.934;2023-07-30T01:05:13;3.13;;;2.83;;
18532;SDS011;9396;51.510;11.934;2023-07-30T01:07:39;3.53;;;3.03;;
18532;SDS011;9396;51.510;11.934;2023-07-30T01:10:06;2.80;;;2.53;;
18532;SDS011;9396;51.510;11.934;2023-07-30T01:12:34;5.30;;;3.27;;
18532;SDS011;9396;51.510;11.934;2023-07-30T01:15:02;4.97;;;3.03;;
18532;SDS011;9396;51.510;11.934;2023-07-30T01:17:30;4.83;;;2.83;;
18532;SDS011;9396;51.510;11.934;2023-07-30T01:19:58;4.70;;;2.73;;
18532;SDS011;9396;51.510;11.934;2023-07-30T01:22:27;4.47;;;3.00;;
18532;SDS011;9396;51.510;11.934;2023-07-30T01:24:53;3.53;;;3.23;;
18532;SDS011;9396;51.510;11.934;2023-07-30T01:27:22;5.10;;;2.90;;
18532;SDS011;9396;51.510;11.934;2023-07-30T01:29:52;6.23;;;3.50;;
18532;SDS011;9396;51.510;11.934;2023-07-30T01:32:23;5.13;;;3.07;;
18532;SDS011;9396;51.510;11.934;2023-07-30T01:34:52;5.47;;;3.17;;
18532;SDS011;9396;51.510;11.934;2023-07-30T01:37:19;5.13;;;3.47;;
18532;SDS011;9396;51.510;11.934;2023-07-30T01:39:49;5.67;;;3.37;;
18532;SDS011;9396;51.510;11.934;2023-07-30T01:42:16;5.47;;;3.20;;
18532;SDS011;9396;51.510;11.934;2023-07-30T01:44:43;3.97;;;2.93;;
18532;SDS011;9396;51.510;11.934;2023-07-30T01:47:10;7.03;;;2.80;;
18532;SDS011;9396;51.510;11.934;2023-07-30T01:49:36;4.87;;;2.83;;
18532;SDS011;9396;51.510;11.934;2023-07-30T01:52:03;5.50;;;2.60;;
18532;SDS011;9396;51.510;11.934;2023-07-30T01:54:30;5.33;;;2.70;;
18532;SDS011;9396;51.510;11.934;2023-07-30T01:56:59;5.10;;;2.70;;
18532;SDS011;9396;51.510;11.934;2023-07-30T01:59:26;4.10;;;2.90;;
18532;SDS011;9396;51.510;11.934;2023-07-30T02:01:52;6.53;;;3.40;;
18532;SDS011;9396;51.510;11.934;2023-07-30T02:04:19;4.50;;;2.73;;
18532;SDS011;9396;51.510;11.934;2023-07-30T02:06:46;4.50;;;2.90;;
18532;SDS011;9396;51.510;11.934;2023-07-30T02:09:13;3.60;;;2.60;;
18532;SDS011;9396;51.510;11.934;2023-07-30T02:11:40;4.60;;;2.63;;
18532;SDS011;9396;51.510;11.934;2023-07-30T02:14:08;4.13;;;3.03;;
18532;SDS011;9396;51.510;11.934;2023-07-30T02:16:35;3.67;;;2.97;;
18532;SDS011;9396;51.510;11.934;2023-07-30T02:19:02;3.40;;;3.10;;
18532;SDS011;9396;51.510;11.934;2023-07-30T02:21:29;7.60;;;3.67;;
18532;SDS011;9396;51.510;11.934;2023-07-30T02:23:58;6.10;;;3.20;;
18532;SDS011;9396;51.510;11.934;2023-07-30T02:26:25;4.23;;;3.20;;
18532;SDS011;9396;51.510;11.934;2023-07-30T02:28:51;4.20;;;2.80;;
18532;SDS011;9396;51.510;11.934;2023-07-30T02:31:20;5.60;;;3.10;;
18532;SDS011;9396;51.510;11.934;2023-07-30T02:33:46;5.90;;;2.90;;
18532;SDS011;9396;51.510;11.934;2023-07-30T02:36:13;6.00;;;2.80;;
18532;SDS011;9396;51.510;11.934;2023-07-30T02:38:40;4.33;;;3.00;;
18532;SDS011;9396;51.510;11.934;2023-07-30T02:41:06;4.50;;;2.80;;
18532;SDS011;9396;51.510;11.934;2023-07-30T02:43:33;6.43;;;2.83;;
18532;SDS011;9396;51.510;11.934;2023-07-30T02:45:59;5.47;;;2.90;;
18532;SDS011;9396;51.510;11.934;2023-07-30T02:48:27;3.30;;;3.00;;
18532;SDS011;9396;51.510;11.934;2023-07-30T02:50:54;7.63;;;2.97;;
18532;SDS011;9396;51.510;11.934;2023-07-30T02:53:21;4.37;;;3.03;;
18532;SDS011;9396;51.510;11.934;2023-07-30T02:55:47;4.27;;;2.80;;
18532;SDS011;9396;51.510;11.934;2023-07-30T02:58:14;7.13;;;3.30;;
18532;SDS011;9396;51.510;11.934;2023-07-30T03:00:41;5.07;;;3.17;;
18532;SDS011;9396;51.510;11.934;2023-07-30T03:03:08;3.77;;;2.90;;
18532;SDS011;9396;51.510;11.934;2023-07-30T03:05:36;8.70;;;2.83;;
18532;SDS011;9396;51.510;11.934;2023-07-30T03:08:02;5.60;;;3.00;;
18532;SDS011;9396;51.510;11.934;2023-07-30T03:10:29;5.90;;;3.20;;
18532;SDS011;9396;51.510;11.934;2023-07-30T03:12:56;7.90;;;3.00;;
18532;SDS011;9396;51.510;11.934;2023-07-30T03:15:23;4.57;;;2.87;;
18532;SDS011;9396;51.510;11.934;2023-07-30T03:17:49;4.10;;;2.83;;
18532;SDS011;9396;51.510;11.934;2023-07-30T03:20:16;6.13;;;2.93;;
18532;SDS011;9396;51.510;11.934;2023-07-30T03:22:44;5.30;;;3.13;;
18532;SDS011;9396;51.510;11.934;2023-07-30T03:25:11;5.63;;;3.17;;
18532;SDS011;9396;51.510;11.934;2023-07-30T03:27:38;8.17;;;2.93;;
18532;SDS011;9396;51.510;11.934;2023-07-30T03:30:05;5.47;;;3.07;;
18532;SDS011;9396;51.510;11.934;2023-07-30T03:32:32;7.00;;;3.20;;
18532;SDS011;9396;51.510;11.934;2023-07-30T03:34:59;4.30;;;3.23;;
18532;SDS011;9396;51.510;11.934;2023-07-30T03:37:25;4.33;;;3.03;;
18532;SDS011;9396;51.510;11.934;2023-07-30T03:39:53;4.33;;;2.93;;
18532;SDS011;9396;51.510;11.934;2023-07-30T03:42:20;3.10;;;2.40;;
18532;SDS011;9396;51.510;11.934;2023-07-30T03:44:47;8.43;;;3.10;;
18532;SDS011;9396;51.510;11.934;2023-07-30T03:47:14;6.87;;;3.13;;
18532;SDS011;9396;51.510;11.934;2023-07-30T03:49:41;3.80;;;2.87;;
18532;SDS011;9396;51.510;11.934;2023-07-30T03:52:08;6.83;;;3.00;;
18532;SDS011;9396;51.510;11.934;2023-07-30T03:54:35;4.60;;;3.10;;
18532;SDS011;9396;51.510;11.934;2023-07-30T03:57:03;4.03;;;2.77;;
18532;SDS011;9396;51.510;11.934;2023-07-30T03:59:30;3.93;;;2.90;;
18532;SDS011;9396;51.510;11.934;2023-07-30T04:01:56;6.03;;;2.80;;
18532;SDS011;9396;51.510;11.934;2023-07-30T04:04:23;3.50;;;2.73;;
18532;SDS011;9396;51.510;11.934;2023-07-30T04:06:50;6.10;;;3.00;;
18532;SDS011;9396;51.510;11.934;2023-07-30T04:09:17;8.43;;;3.20;;
18532;SDS011;9396;51.510;11.934;2023-07-30T04:11:43;5.53;;;3.47;;
18532;SDS011;9396;51.510;11.934;2023-07-30T04:14:12;3.07;;;2.70;;
18532;SDS011;9396;51.510;11.934;2023-07-30T04:16:38;6.60;;;3.30;;
18532;SDS011;9396;51.510;11.934;2023-07-30T04:19:05;9.83;;;3.20;;
18532;SDS011;9396;51.510;11.934;2023-07-30T04:21:32;4.80;;;3.20;;
18532;SDS011;9396;51.510;11.934;2023-07-30T04:23:58;3.70;;;3.03;;
18532;SDS011;9396;51.510;11.934;2023-07-30T04:26:25;5.37;;;3.00;;
18532;SDS011;9396;51.510;11.934;2023-07-30T04:28:52;5.37;;;2.97;;
18532;SDS011;9396;51.510;11.934;2023-07-30T04:31:20;3.67;;;2.80;;
18532;SDS011;9396;51.510;11.934;2023-07-30T04:33:46;5.63;;;2.93;;
18532;SDS011;9396;51.510;11.934;2023-07-30T04:36:13;3.80;;;3.17;;
18532;SDS011;9396;51.510;11.934;2023-07-30T04:38:40;2.80;;;2.60;;
18532;SDS011;9396;51.510;11.934;2023-07-30T04:41:06;6.30;;;3.17;;
18532;SDS011;9396;51.510;11.934;2023-07-30T04:43:33;5.90;;;2.97;;
18532;SDS011;9396;51.510;11.934;2023-07-30T04:46:00;4.60;;;2.80;;
18532;SDS011;9396;51.510;11.934;2023-07-30T04:48:28;6.77;;;3.20;;
18532;SDS011;9396;51.510;11.934;2023-07-30T04:50:54;4.67;;;3.00;;
18532;SDS011;9396;51.510;11.934;2023-07-30T04:53:21;3.73;;;2.87;;
18532;SDS011;9396;51.510;11.934;2023-07-30T04:55:48;4.77;;;2.70;;
18532;SDS011;9396;51.510;11.934;2023-07-30T04:58:14;3.93;;;2.90;;
18532;SDS011;9396;51.510;11.934;2023-07-30T05:00:43;5.57;;;2.87;;
18532;SDS011;9396;51.510;11.934;2023-07-30T05:03:10;4.63;;;2.70;;
18532;SDS011;9396;51.510;11.934;2023-07-30T05:05:38;5.80;;;3.10;;
18532;SDS011;9396;51.510;11.934;2023-07-30T05:08:04;3.17;;;2.40;;
18532;SDS011;9396;51.510;11.934;2023-07-30T05:10:31;4.60;;;2.70;;
18532;SDS011;9396;51.510;11.934;2023-07-30T05:12:58;6.00;;;2.70;;
18532;SDS011;9396;51.510;11.934;2023-07-30T05:15:25;7.30;;;2.73;;
18532;SDS011;9396;51.510;11.934;2023-07-30T05:17:52;4.43;;;2.63;;
18532;SDS011;9396;51.510;11.934;2023-07-30T05:20:19;5.10;;;2.70;;
18532;SDS011;9396;51.510;11.934;2023-07-30T05:22:47;5.03;;;2.83;;
18532;SDS011;9396;51.510;11.934;2023-07-30T05:25:13;3.87;;;2.30;;
18532;SDS011;9396;51.510;11.934;2023-07-30T05:27:40;5.23;;;3.07;;
18532;SDS011;9396;51.510;11.934;2023-07-30T05:30:07;5.23;;;2.80;;
18532;SDS011;9396;51.510;11.934;2023-07-30T05:32:34;4.53;;;2.70;;
18532;SDS011;9396;51.510;11.934;2023-07-30T05:35:01;3.60;;;2.60;;
18532;SDS011;9396;51.510;11.934;2023-07-30T05:37:28;4.87;;;2.83;;
18532;SDS011;9396;51.510;11.934;2023-07-30T05:39:56;4.83;;;3.27;;
18532;SDS011;9396;51.510;11.934;2023-07-30T05:42:23;5.53;;;3.10;;
18532;SDS011;9396;51.510;11.934;2023-07-30T05:44:49;6.80;;;3.07;;
18532;SDS011;9396;51.510;11.934;2023-07-30T05:47:16;3.00;;;2.63;;
18532;SDS011;9396;51.510;11.934;2023-07-30T05:49:43;4.03;;;2.60;;
18532;SDS011;9396;51.510;11.934;2023-07-30T05:52:09;3.00;;;2.70;;
18532;SDS011;9396;51.510;11.934;2023-07-30T05:54:36;3.07;;;2.50;;
18532;SDS011;9396;51.510;11.934;2023-07-30T05:57:04;3.33;;;2.40;;
18532;SDS011;9396;51.510;11.934;2023-07-30T05:59:31;5.17;;;2.60;;
18532;SDS011;9396;51.510;11.934;2023-07-30T06:02:01;5.47;;;2.30;;
18532;SDS011;9396;51.510;11.934;2023-07-30T06:04:28;2.50;;;2.30;;
18532;SDS011;9396;51.510;11.934;2023-07-30T06:06:55;2.87;;;2.50;;
18532;SDS011;9396;51.510;11.934;2023-07-30T06:09:21;2.53;;;2.20;;
18532;SDS011;9396;51.510;11.934;2023-07-30T06:11:48;5.53;;;2.43;;
18532;SDS011;9396;51.510;11.934;2023-07-30T06:14:16;2.87;;;1.93;;
18532;SDS011;9396;51.510;11.934;2023-07-30T06:16:43;1.77;;;1.63;;
18532;SDS011;9396;51.510;11.934;2023-07-30T06:19:10;3.20;;;1.83;;
18532;SDS011;9396;51.510;11.934;2023-07-30T06:21:36;3.43;;;1.80;;
18532;SDS011;9396;51.510;11.934;2023-07-30T06:24:03;2.47;;;1.60;;
18532;SDS011;9396;51.510;11.934;2023-07-30T06:26:30;2.30;;;1.80;;
18532;SDS011;9396;51.510;11.934;2023-07-30T06:28:57;3.30;;;1.80;;
18532;SDS011;9396;51.510;11.934;2023-07-30T06:31:25;4.23;;;1.70;;
18532;SDS011;9396;51.510;11.934;2023-07-30T06:33:51;4.23;;;1.67;;
18532;SDS011;9396;51.510;11.934;2023-07-30T06:36:18;3.43;;;2.07;;
18532;SDS011;9396;51.510;11.934;2023-07-30T06:38:45;1.90;;;1.70;;
18532;SDS011;9396;51.510;11.934;2023-07-30T06:41:11;3.67;;;1.70;;
18532;SDS011;9396;51.510;11.934;2023-07-30T06:43:38;3.37;;;2.10;;
18532;SDS011;9396;51.510;11.934;2023-07-30T06:46:05;3.47;;;1.73;;
18532;SDS011;9396;51.510;11.934;2023-07-30T06:48:33;2.80;;;1.60;;
18532;SDS011;9396;51.510;11.934;2023-07-30T06:50:59;4.27;;;1.80;;
18532;SDS011;9396;51.510;11.934;2023-07-30T06:53:26;2.87;;;1.50;;
18532;SDS011;9396;51.510;11.934;2023-07-30T06:55:53;2.57;;;1.53;;
18532;SDS011;9396;51.510;11.934;2023-07-30T06:58:19;1.60;;;1.30;;
18532;SDS011;9396;51.510;11.934;2023-07-30T07:00:46;1.90;;;1.50;;
18532;SDS011;9396;51.510;11.934;2023-07-30T07:03:12;5.20;;;1.67;;
18532;SDS011;9396;51.510;11.934;2023-07-30T07:05:40;1.83;;;1.40;;
18532;SDS011;9396;51.510;11.934;2023-07-30T07:08:07;2.83;;;1.50;;
18532;SDS011;9396;51.510;11.934;2023-07-30T07:10:34;3.23;;;1.77;;
18532;SDS011;9396;51.510;11.934;2023-07-30T07:13:00;2.10;;;1.60;;
18532;SDS011;9396;51.510;11.934;2023-07-30T07:15:27;2.13;;;1.40;;
18532;SDS011;9396;51.510;11.934;2023-07-30T07:17:54;2.53;;;1.33;;
18532;SDS011;9396;51.510;11.934;2023-07-30T07:20:20;2.97;;;1.50;;
18532;SDS011;9396;51.510;11.934;2023-07-30T07:22:48;3.63;;;1.50;;
18532;SDS011;9396;51.510;11.934;2023-07-30T07:25:15;1.97;;;1.57;;
18532;SDS011;9396;51.510;11.934;2023-07-30T07:27:44;1.83;;;1.70;;
18532;SDS011;9396;51.510;11.934;2023-07-30T07:30:11;5.00;;;2.00;;
18532;SDS011;9396;51.510;11.934;2023-07-30T07:32:38;4.47;;;2.40;;
18532;SDS011;9396;51.510;11.934;2023-07-30T07:35:05;2.53;;;2.00;;
18532;SDS011;9396;51.510;11.934;2023-07-30T07:37:32;2.37;;;1.60;;
18532;SDS011;9396;51.510;11.934;2023-07-30T07:40:00;4.60;;;2.43;;
18532;SDS011;9396;51.510;11.934;2023-07-30T07:42:28;4.63;;;1.60;;
18532;SDS011;9396;51.510;11.934;2023-07-30T07:44:55;5.03;;;2.67;;
18532;SDS011;9396;51.510;11.934;2023-07-30T07:47:21;3.17;;;2.17;;
18532;SDS011;9396;51.510;11.934;2023-07-30T07:49:48;3.50;;;2.60;;
18532;SDS011;9396;51.510;11.934;2023-07-30T07:52:15;3.40;;;2.27;;
18532;SDS011;9396;51.510;11.934;2023-07-30T07:54:42;2.50;;;2.10;;
18532;SDS011;9396;51.510;11.934;2023-07-30T07:57:10;4.27;;;2.70;;
18532;SDS011;9396;51.510;11.934;2023-07-30T07:59:37;6.13;;;2.80;;
18532;SDS011;9396;51.510;11.934;2023-07-30T08:02:04;3.90;;;2.67;;
18532;SDS011;9396;51.510;11.934;2023-07-30T08:04:31;3.50;;;2.23;;
18532;SDS011;9396;51.510;11.934;2023-07-30T08:06:58;2.63;;;2.30;;
18532;SDS011;9396;51.510;11.934;2023-07-30T08:09:28;2.33;;;1.97;;
18532;SDS011;9396;51.510;11.934;2023-07-30T08:11:55;6.37;;;2.57;;
18532;SDS011;9396;51.510;11.934;2023-07-30T08:14:23;4.03;;;1.77;;
18532;SDS011;9396;51.510;11.934;2023-07-30T08:16:49;1.90;;;1.70;;
18532;SDS011;9396;51.510;11.934;2023-07-30T08:19:16;6.60;;;1.80;;
18532;SDS011;9396;51.510;11.934;2023-07-30T08:21:43;1.53;;;1.40;;
18532;SDS011;9396;51.510;11.934;2023-07-30T08:24:10;1.90;;;1.53;;
18532;SDS011;9396;51.510;11.934;2023-07-30T08:26:36;3.17;;;1.80;;
18532;SDS011;9396;51.510;11.934;2023-07-30T08:29:03;4.00;;;2.10;;
18532;SDS011;9396;51.510;11.934;2023-07-30T08:31:32;4.37;;;2.20;;
18532;SDS011;9396;51.510;11.934;2023-07-30T08:33:59;3.73;;;1.70;;
18532;SDS011;9396;51.510;11.934;2023-07-30T08:36:26;3.60;;;2.07;;
18532;SDS011;9396;51.510;11.934;2023-07-30T08:38:52;2.60;;;1.60;;
18532;SDS011;9396;51.510;11.934;2023-07-30T08:41:19;3.37;;;1.77;;
18532;SDS011;9396;51.510;11.934;2023-07-30T08:43:46;2.60;;;1.77;;
18532;SDS011;9396;51.510;11.934;2023-07-30T08:46:14;2.87;;;1.83;;
18532;SDS011;9396;51.510;11.934;2023-07-30T08:48:42;2.53;;;1.60;;
18532;SDS011;9396;51.510;11.934;2023-07-30T08:51:08;5.37;;;1.90;;
18532;SDS011;9396;51.510;11.934;2023-07-30T08:53:37;3.23;;;1.70;;
18532;SDS011;9396;51.510;11.934;2023-07-30T08:56:04;2.77;;;1.57;;
18532;SDS011;9396;51.510;11.934;2023-07-30T08:58:31;3.90;;;1.80;;
18532;SDS011;9396;51.510;11.934;2023-07-30T09:01:01;7.47;;;2.30;;
18532;SDS011;9396;51.510;11.934;2023-07-30T09:03:34;6.67;;;2.10;;
18532;SDS011;9396;51.510;11.934;2023-07-30T09:06:06;6.93;;;2.23;;
18532;SDS011;9396;51.510;11.934;2023-07-30T09:08:33;5.87;;;1.80;;
18532;SDS011;9396;51.510;11.934;2023-07-30T09:11:05;6.60;;;2.33;;
18532;SDS011;9396;51.510;11.934;2023-07-30T09:13:36;5.10;;;2.10;;
18532;SDS011;9396;51.510;11.934;2023-07-30T09:16:07;3.83;;;1.73;;
18532;SDS011;9396;51.510;11.934;2023-07-30T09:18:38;3.00;;;1.80;;
18532;SDS011;9396;51.510;11.934;2023-07-30T09:21:07;6.03;;;1.67;;
18532;SDS011;9396;51.510;11.934;2023-07-30T09:23:38;3.67;;;1.90;;
18532;SDS011;9396;51.510;11.934;2023-07-30T09:26:06;3.97;;;1.53;;
18532;SDS011;9396;51.510;11.934;2023-07-30T09:28:32;3.03;;;1.93;;
18532;SDS011;9396;51.510;11.934;2023-07-30T09:30:59;2.23;;;1.70;;
18532;SDS011;9396;51.510;11.934;2023-07-30T09:33:27;2.90;;;1.73;;
18532;SDS011;9396;51.510;11.934;2023-07-30T09:35:54;2.30;;;1.83;;
18532;SDS011;9396;51.510;11.934;2023-07-30T09:38:22;5.30;;;1.53;;
18532;SDS011;9396;51.510;11.934;2023-07-30T09:40:48;3.70;;;1.60;;
18532;SDS011;9396;51.510;11.934;2023-07-30T09:43:15;4.30;;;1.80;;
18532;SDS011;9396;51.510;11.934;2023-07-30T09:45:44;5.17;;;1.70;;
18532;SDS011;9396;51.510;11.934;2023-07-30T09:48:12;2.70;;;1.60;;
18532;SDS011;9396;51.510;11.934;2023-07-30T09:50:40;3.13;;;1.60;;
18532;SDS011;9396;51.510;11.934;2023-07-30T09:53:08;1.97;;;1.60;;
18532;SDS011;9396;51.510;11.934;2023-07-30T09:55:36;5.17;;;1.27;;
18532;SDS011;9396;51.510;11.934;2023-07-30T09:58:03;1.67;;;1.40;;
18532;SDS011;9396;51.510;11.934;2023-07-30T10:00:31;2.80;;;1.50;;
18532;SDS011;9396;51.510;11.934;2023-07-30T10:02:58;3.00;;;1.57;;
18532;SDS011;9396;51.510;11.934;2023-07-30T10:05:26;3.30;;;1.73;;
18532;SDS011;9396;51.510;11.934;2023-07-30T10:07:59;2.50;;;1.50;;
18532;SDS011;9396;51.510;11.934;2023-07-30T10:10:30;2.57;;;1.53;;
18532;SDS011;9396;51.510;11.934;2023-07-30T10:13:00;2.53;;;1.50;;
18532;SDS011;9396;51.510;11.934;2023-07-30T10:15:29;3.40;;;1.60;;
18532;SDS011;9396;51.510;11.934;2023-07-30T10:18:00;2.37;;;1.50;;
18532;SDS011;9396;51.510;11.934;2023-07-30T10:20:27;3.30;;;1.40;;
18532;SDS011;9396;51.510;11.934;2023-07-30T10:22:55;2.30;;;1.10;;
18532;SDS011;9396;51.510;11.934;2023-07-30T10:25:28;1.70;;;1.13;;
18532;SDS011;9396;51.510;11.934;2023-07-30T10:27:56;3.07;;;1.17;;
18532;SDS011;9396;51.510;11.934;2023-07-30T10:30:30;2.40;;;1.50;;
18532;SDS011;9396;51.510;11.934;2023-07-30T10:32:59;5.53;;;1.30;;
18532;SDS011;9396;51.510;11.934;2023-07-30T10:35:40;1.40;;;1.20;;
18532;SDS011;9396;51.510;11.934;2023-07-30T10:38:18;3.00;;;1.50;;
18532;SDS011;9396;51.510;11.934;2023-07-30T10:41:02;4.40;;;1.30;;
18532;SDS011;9396;51.510;11.934;2023-07-30T10:43:33;4.47;;;1.50;;
18532;SDS011;9396;51.510;11.934;2023-07-30T10:46:01;2.63;;;1.23;;
18532;SDS011;9396;51.510;11.934;2023-07-30T10:48:32;1.80;;;1.23;;
18532;SDS011;9396;51.510;11.934;2023-07-30T10:51:00;3.37;;;1.60;;
18532;SDS011;9396;51.510;11.934;2023-07-30T10:53:27;1.00;;;0.77;;
18532;SDS011;9396;51.510;11.934;2023-07-30T10:55:53;4.43;;;1.30;;
18532;SDS011;9396;51.510;11.934;2023-07-30T10:58:24;2.63;;;1.10;;
18532;SDS011;9396;51.510;11.934;2023-07-30T11:00:53;2.47;;;1.07;;
18532;SDS011;9396;51.510;11.934;2023-07-30T11:03:20;2.20;;;1.40;;
18532;SDS011;9396;51.510;11.934;2023-07-30T11:05:47;2.80;;;1.50;;
18532;SDS011;9396;51.510;11.934;2023-07-30T11:08:14;1.60;;;1.30;;
18532;SDS011;9396;51.510;11.934;2023-07-30T11:10:41;1.57;;;1.10;;
18532;SDS011;9396;51.510;11.934;2023-07-30T11:13:09;3.50;;;1.63;;
18532;SDS011;9396;51.510;11.934;2023-07-30T11:15:40;1.77;;;1.10;;
18532;SDS011;9396;51.510;11.934;2023-07-30T11:18:09;2.27;;;1.13;;
18532;SDS011;9396;51.510;11.934;2023-07-30T11:20:36;2.93;;;1.10;;
18532;SDS011;9396;51.510;11.934;2023-07-30T11:23:03;1.67;;;1.10;;
18532;SDS011;9396;51.510;11.934;2023-07-30T11:25:45;3.37;;;1.40;;
18532;SDS011;9396;51.510;11.934;2023-07-30T11:28:12;2.43;;;1.30;;
18532;SDS011;9396;51.510;11.934;2023-07-30T11:30:38;1.63;;;1.30;;
18532;SDS011;9396;51.510;11.934;2023-07-30T11:33:05;2.10;;;1.10;;
18532;SDS011;9396;51.510;11.934;2023-07-30T11:35:33;1.63;;;1.20;;
18532;SDS011;9396;51.510;11.934;2023-07-30T11:38:01;1.80;;;1.20;;
18532;SDS011;9396;51.510;11.934;2023-07-30T11:40:28;2.30;;;1.30;;
18532;SDS011;9396;51.510;11.934;2023-07-30T11:42:54;1.73;;;1.23;;
18532;SDS011;9396;51.510;11.934;2023-07-30T11:45:22;2.93;;;1.27;;
18532;SDS011;9396;51.510;11.934;2023-07-30T11:47:50;2.30;;;1.10;;
18532;SDS011;9396;51.510;11.934;2023-07-30T11:50:17;2.57;;;1.00;;
18532;SDS011;9396;51.510;11.934;2023-07-30T11:52:55;2.00;;;1.33;;
18532;SDS011;9396;51.510;11.934;2023-07-30T11:55:23;1.50;;;1.20;;
18532;SDS011;9396;51.510;11.934;2023-07-30T11:57:50;3.43;;;1.20;;
18532;SDS011;9396;51.510;11.934;2023-07-30T12:00:20;1.97;;;1.20;;
18532;SDS011;9396;51.510;11.934;2023-07-30T12:02:47;1.87;;;1.20;;
18532;SDS011;9396;51.510;11.934;2023-07-30T12:05:16;2.07;;;1.30;;
18532;SDS011;9396;51.510;11.934;2023-07-30T12:07:43;2.03;;;1.43;;
18532;SDS011;9396;51.510;11.934;2023-07-30T12:10:14;3.83;;;1.40;;
18532;SDS011;9396;51.510;11.934;2023-07-30T12:12:44;1.93;;;1.30;;
18532;SDS011;9396;51.510;11.934;2023-07-30T12:15:11;2.30;;;1.20;;
18532;SDS011;9396;51.510;11.934;2023-07-30T12:17:39;2.70;;;1.47;;
18532;SDS011;9396;51.510;11.934;2023-07-30T12:20:06;4.77;;;1.63;;
18532;SDS011;9396;51.510;11.934;2023-07-30T12:22:33;1.73;;;1.27;;
18532;SDS011;9396;51.510;11.934;2023-07-30T12:25:00;1.83;;;1.27;;
18532;SDS011;9396;51.510;11.934;2023-07-30T12:27:30;3.23;;;1.50;;
18532;SDS011;9396;51.510;11.934;2023-07-30T12:29:56;3.83;;;1.10;;
18532;SDS011;9396;51.510;11.934;2023-07-30T12:32:23;2.03;;;1.30;;
18532;SDS011;9396;51.510;11.934;2023-07-30T12:34:53;2.30;;;1.50;;
18532;SDS011;9396;51.510;11.934;2023-07-30T12:37:19;5.00;;;2.00;;
18532;SDS011;9396;51.510;11.934;2023-07-30T12:39:46;4.23;;;1.50;;
18532;SDS011;9396;51.510;11.934;2023-07-30T12:42:13;2.33;;;1.80;;
18532;SDS011;9396;51.510;11.934;2023-07-30T12:44:41;5.47;;;2.17;;
18532;SDS011;9396;51.510;11.934;2023-07-30T12:47:07;8.13;;;2.47;;
18532;SDS011;9396;51.510;11.934;2023-07-30T12:49:34;8.73;;;3.30;;
18532;SDS011;9396;51.510;11.934;2023-07-30T12:52:01;7.23;;;2.60;;
18532;SDS011;9396;51.510;11.934;2023-07-30T12:54:28;5.17;;;2.47;;
18532;SDS011;9396;51.510;11.934;2023-07-30T12:56:54;5.80;;;2.93;;
18532;SDS011;9396;51.510;11.934;2023-07-30T12:59:21;6.00;;;2.87;;
18532;SDS011;9396;51.510;11.934;2023-07-30T13:01:49;5.43;;;2.80;;
18532;SDS011;9396;51.510;11.934;2023-07-30T13:04:16;4.93;;;2.90;;
18532;SDS011;9396;51.510;11.934;2023-07-30T13:06:43;6.27;;;3.40;;
18532;SDS011;9396;51.510;11.934;2023-07-30T13:09:09;5.73;;;3.00;;
18532;SDS011;9396;51.510;11.934;2023-07-30T13:11:36;3.67;;;2.50;;
18532;SDS011;9396;51.510;11.934;2023-07-30T13:14:03;6.43;;;2.80;;
18532;SDS011;9396;51.510;11.934;2023-07-30T13:16:29;3.93;;;2.63;;
18532;SDS011;9396;51.510;11.934;2023-07-30T13:18:58;4.53;;;2.57;;
18532;SDS011;9396;51.510;11.934;2023-07-30T13:21:25;5.20;;;2.43;;
18532;SDS011;9396;51.510;11.934;2023-07-30T13:23:52;4.53;;;2.40;;
18532;SDS011;9396;51.510;11.934;2023-07-30T13:26:19;3.60;;;2.50;;
18532;SDS011;9396;51.510;11.934;2023-07-30T13:28:45;4.33;;;2.13;;
18532;SDS011;9396;51.510;11.934;2023-07-30T13:31:12;3.53;;;1.87;;
18532;SDS011;9396;51.510;11.934;2023-07-30T13:33:39;3.43;;;2.03;;
18532;SDS011;9396;51.510;11.934;2023-07-30T13:36:07;3.30;;;2.00;;
18532;SDS011;9396;51.510;11.934;2023-07-30T13:38:34;4.70;;;1.93;;
18532;SDS011;9396;51.510;11.934;2023-07-30T13:41:00;4.67;;;1.57;;
18532;SDS011;9396;51.510;11.934;2023-07-30T13:43:27;2.70;;;1.67;;
18532;SDS011;9396;51.510;11.934;2023-07-30T13:45:54;4.67;;;1.90;;
18532;SDS011;9396;51.510;11.934;2023-07-30T13:48:22;3.70;;;1.77;;
18532;SDS011;9396;51.510;11.934;2023-07-30T13:50:48;2.77;;;1.87;;
18532;SDS011;9396;51.510;11.934;2023-07-30T13:53:16;5.13;;;2.40;;
18532;SDS011;9396;51.510;11.934;2023-07-30T13:55:43;2.10;;;1.47;;
18532;SDS011;9396;51.510;11.934;2023-07-30T13:58:10;2.67;;;1.50;;
18532;SDS011;9396;51.510;11.934;2023-07-30T14:00:39;3.30;;;2.13;;
18532;SDS011;9396;51.510;11.934;2023-07-30T14:03:07;2.63;;;1.93;;
18532;SDS011;9396;51.510;11.934;2023-07-30T14:05:34;2.97;;;1.67;;
18532;SDS011;9396;51.510;11.934;2023-07-30T14:08:01;2.83;;;1.60;;
18532;SDS011;9396;51.510;11.934;2023-07-30T14:10:29;2.53;;;1.70;;
18532;SDS011;9396;51.510;11.934;2023-07-30T14:12:56;2.17;;;1.70;;
18532;SDS011;9396;51.510;11.934;2023-07-30T14:15:22;2.37;;;1.70;;
18532;SDS011;9396;51.510;11.934;2023-07-30T14:17:49;3.30;;;1.90;;
18532;SDS011;9396;51.510;11.934;2023-07-30T14:20:17;5.17;;;1.90;;
18532;SDS011;9396;51.510;11.934;2023-07-30T14:22:43;2.30;;;1.43;;
18532;SDS011;9396;51.510;11.934;2023-07-30T14:25:10;3.53;;;1.83;;
18532;SDS011;9396;51.510;11.934;2023-07-30T14:27:38;2.93;;;1.70;;
18532;SDS011;9396;51.510;11.934;2023-07-30T14:30:05;2.10;;;1.67;;
18532;SDS011;9396;51.510;11.934;2023-07-30T14:32:33;3.73;;;2.10;;
18532;SDS011;9396;51.510;11.934;2023-07-30T14:34:59;5.37;;;2.00;;
18532;SDS011;9396;51.510;11.934;2023-07-30T14:37:26;3.47;;;1.93;;
18532;SDS011;9396;51.510;11.934;2023-07-30T14:39:53;3.47;;;1.90;;
18532;SDS011;9396;51.510;11.934;2023-07-30T14:42:19;2.53;;;1.87;;
18532;SDS011;9396;51.510;11.934;2023-07-30T14:44:47;2.67;;;1.77;;
18532;SDS011;9396;51.510;11.934;2023-07-30T14:47:14;3.87;;;2.07;;
18532;SDS011;9396;51.510;11.934;2023-07-30T14:49:40;4.57;;;1.80;;